Time;durP1;ratioP1;P1;durP2;ratioP2;P2;SDS_P1;SDS_P2;PMS_P1;PMS_P2;Temp;Humidity;BMP_temperature;BMP_pressure;BME280_temperature;BME280_humidity;BME280_pressure;Samples;Min_cycle;Max_cycle;Signal;HPM_P1;HPM_P2
2021/10/18 00:00:44;;;;;;;29.50;17.83;;;;;;;;;;4993086;28;20044;-63
2021/10/18 00:03:29;;;;;;;26.23;17.00;;;;;;;;;;4995272;28;20033;-59
2021/10/18 00:06:14;;;;;;;26.55;17.02;;;;;;;;;;4991494;28;20085;-65
2021/10/18 00:09:00;;;;;;;24.25;15.65;;;;;;;;;;4996962;28;20509;-67
2021/10/18 00:11:45;;;;;;;27.83;18.08;;;;;;;;;;4991154;28;20081;-67
2021/10/18 00:14:30;;;;;;;30.83;18.10;;;;;;;;;;5002095;28;20796;-64
2021/10/18 00:17:16;;;;;;;30.33;19.02;;;;;;;;;;4993904;28;20037;-64
2021/10/18 00:20:03;;;;;;;27.00;17.83;;;;;;;;;;4991888;28;20034;-60
2021/10/18 00:22:48;;;;;;;26.30;17.10;;;;;;;;;;5008725;28;20045;-71
2021/10/18 00:25:34;;;;;;;26.42;15.90;;;;;;;;;;5005194;28;20033;-72
2021/10/18 00:28:19;;;;;;;29.05;18.48;;;;;;;;;;4995896;28;20495;-69
2021/10/18 00:31:05;;;;;;;29.25;18.60;;;;;;;;;;4998353;28;20062;-70
2021/10/18 00:33:50;;;;;;;25.75;15.80;;;;;;;;;;4990915;28;20137;-71
2021/10/18 00:36:35;;;;;;;28.33;16.65;;;;;;;;;;4995961;28;20049;-72
2021/10/18 00:39:21;;;;;;;26.52;17.17;;;;;;;;;;4995906;28;20333;-61
2021/10/18 00:42:06;;;;;;;25.88;17.90;;;;;;;;;;4982880;28;20052;-68
2021/10/18 00:44:51;;;;;;;25.63;17.27;;;;;;;;;;5001104;28;20045;-69
2021/10/18 00:47:37;;;;;;;22.27;15.45;;;;;;;;;;5002190;28;20029;-69
2021/10/18 00:50:22;;;;;;;22.75;15.80;;;;;;;;;;4988621;28;20037;-68
2021/10/18 00:53:07;;;;;;;24.63;16.73;;;;;;;;;;4996838;28;20069;-69
2021/10/18 00:55:54;;;;;;;24.40;16.35;;;;;;;;;;4992374;28;20068;-64
2021/10/18 00:58:40;;;;;;;26.27;18.30;;;;;;;;;;5004686;28;20042;-63
2021/10/18 01:01:25;;;;;;;26.48;17.27;;;;;;;;;;5004053;28;20082;-64
2021/10/18 01:04:11;;;;;;;24.48;15.75;;;;;;;;;;5002386;28;20048;-64
2021/10/18 01:06:57;;;;;;;23.00;15.35;;;;;;;;;;4988001;28;20534;-66
2021/10/18 01:09:42;;;;;;;26.80;17.25;;;;;;;;;;5007717;28;20148;-64
2021/10/18 01:12:27;;;;;;;24.90;15.32;;;;;;;;;;5000451;28;20042;-64
2021/10/18 01:15:12;;;;;;;27.73;16.38;;;;;;;;;;4986628;28;20034;-64
2021/10/18 01:17:58;;;;;;;25.10;15.18;;;;;;;;;;4991489;28;20030;-63
2021/10/18 01:20:43;;;;;;;23.23;16.10;;;;;;;;;;5003765;28;20073;-62
2021/10/18 01:23:28;;;;;;;22.35;15.15;;;;;;;;;;5003046;28;20423;-62
2021/10/18 01:26:14;;;;;;;25.02;16.58;;;;;;;;;;4992077;28;20034;-62
2021/10/18 01:28:59;;;;;;;26.38;16.23;;;;;;;;;;5001287;28;20033;-62
2021/10/18 01:31:44;;;;;;;25.25;18.20;;;;;;;;;;5004950;28;20637;-60
2021/10/18 01:34:29;;;;;;;26.63;17.27;;;;;;;;;;4976709;28;20462;-63
2021/10/18 01:37:15;;;;;;;27.50;17.27;;;;;;;;;;5004087;28;20045;-64
2021/10/18 01:40:00;;;;;;;24.63;15.95;;;;;;;;;;4988323;28;20026;-64
2021/10/18 01:42:45;;;;;;;24.45;15.85;;;;;;;;;;4987851;28;20470;-63
2021/10/18 01:45:31;;;;;;;28.67;17.55;;;;;;;;;;4993627;28;20658;-63
2021/10/18 01:48:16;;;;;;;27.52;17.83;;;;;;;;;;4990823;28;20053;-64
2021/10/18 01:51:01;;;;;;;25.33;15.70;;;;;;;;;;4994121;28;20094;-65
2021/10/18 01:53:46;;;;;;;27.55;17.92;;;;;;;;;;5001573;28;20034;-61
2021/10/18 01:56:33;;;;;;;26.05;17.08;;;;;;;;;;4995287;28;20041;-66
2021/10/18 01:59:19;;;;;;;31.67;17.73;;;;;;;;;;4978123;28;20033;-66
2021/10/18 02:02:04;;;;;;;32.10;20.15;;;;;;;;;;4999256;28;20116;-65
2021/10/18 02:04:49;;;;;;;26.83;17.38;;;;;;;;;;4995879;28;20125;-65
2021/10/18 02:07:34;;;;;;;29.33;18.50;;;;;;;;;;5009600;28;20038;-65
2021/10/18 02:10:20;;;;;;;29.48;18.10;;;;;;;;;;4995176;28;20030;-62
2021/10/18 02:13:05;;;;;;;30.83;18.90;;;;;;;;;;5007283;28;20416;-64
2021/10/18 02:15:50;;;;;;;28.15;18.95;;;;;;;;;;4984736;28;20062;-64
2021/10/18 02:18:36;;;;;;;28.67;18.08;;;;;;;;;;4994153;28;20041;-67
2021/10/18 02:21:21;;;;;;;28.90;19.48;;;;;;;;;;5001095;28;20096;-62
2021/10/18 02:24:06;;;;;;;30.48;20.20;;;;;;;;;;5009671;28;20089;-64
2021/10/18 02:26:51;;;;;;;33.13;20.98;;;;;;;;;;4997153;28;20040;-65
2021/10/18 02:29:36;;;;;;;29.88;19.02;;;;;;;;;;4991168;28;20038;-66
2021/10/18 02:32:22;;;;;;;34.67;23.25;;;;;;;;;;4996464;28;20046;-63
2021/10/18 02:35:08;;;;;;;32.50;19.02;;;;;;;;;;4993923;28;20021;-61
2021/10/18 02:37:53;;;;;;;34.35;22.02;;;;;;;;;;4996712;28;20088;-62
2021/10/18 02:40:38;;;;;;;32.28;19.95;;;;;;;;;;5008776;28;20037;-62
2021/10/18 02:43:23;;;;;;;36.60;21.30;;;;;;;;;;4994188;28;20033;-62
2021/10/18 02:46:09;;;;;;;36.88;23.33;;;;;;;;;;4987859;28;20026;-61
2021/10/18 02:48:54;;;;;;;37.92;23.98;;;;;;;;;;4990086;28;20125;-64
2021/10/18 02:51:39;;;;;;;33.20;20.90;;;;;;;;;;4993888;28;20114;-68
2021/10/18 02:54:24;;;;;;;35.47;22.75;;;;;;;;;;4995057;28;20138;-70
2021/10/18 02:57:10;;;;;;;34.53;22.17;;;;;;;;;;5012923;28;20473;-69
2021/10/18 02:59:55;;;;;;;33.90;21.60;;;;;;;;;;4993484;28;20061;-69
2021/10/18 03:02:40;;;;;;;32.67;20.85;;;;;;;;;;4984244;28;20045;-69
2021/10/18 03:05:26;;;;;;;38.30;23.70;;;;;;;;;;4987747;28;20481;-63
2021/10/18 03:08:11;;;;;;;35.20;21.92;;;;;;;;;;5014006;28;20391;-63
2021/10/18 03:10:56;;;;;;;35.80;23.08;;;;;;;;;;4989282;28;20041;-64
2021/10/18 03:13:42;;;;;;;33.53;22.15;;;;;;;;;;4989663;28;20038;-62
2021/10/18 03:16:27;;;;;;;38.08;23.73;;;;;;;;;;5001990;28;20115;-63
2021/10/18 03:19:12;;;;;;;37.70;23.63;;;;;;;;;;4997320;28;20030;-62
2021/10/18 03:21:57;;;;;;;39.45;23.13;;;;;;;;;;4998585;28;20066;-62
2021/10/18 03:24:43;;;;;;;34.90;21.58;;;;;;;;;;4997953;28;20054;-70
2021/10/18 03:27:28;;;;;;;36.38;22.17;;;;;;;;;;4980973;28;20030;-61
2021/10/18 03:30:13;;;;;;;35.95;21.42;;;;;;;;;;4999170;28;20048;-62
2021/10/18 03:32:59;;;;;;;39.15;22.08;;;;;;;;;;5000615;28;20039;-62
2021/10/18 03:35:45;;;;;;;33.60;22.73;;;;;;;;;;4977473;28;20137;-62
2021/10/18 03:38:30;;;;;;;34.35;22.77;;;;;;;;;;5000181;28;20548;-61
2021/10/18 03:41:15;;;;;;;35.20;23.52;;;;;;;;;;4993271;28;20121;-65
2021/10/18 03:44:01;;;;;;;33.60;22.15;;;;;;;;;;4987237;28;20035;-64
2021/10/18 03:46:47;;;;;;;33.72;21.77;;;;;;;;;;4995956;28;20361;-70
2021/10/18 03:49:32;;;;;;;41.03;25.02;;;;;;;;;;4968974;28;20038;-70
2021/10/18 03:52:18;;;;;;;37.70;22.98;;;;;;;;;;4991730;28;20466;-69
2021/10/18 03:55:04;;;;;;;32.47;20.58;;;;;;;;;;4989066;28;20053;-69
2021/10/18 03:57:49;;;;;;;39.60;23.90;;;;;;;;;;5002636;28;20048;-71
2021/10/18 04:00:34;;;;;;;33.92;21.90;;;;;;;;;;4999574;28;20737;-63
2021/10/18 04:03:20;;;;;;;31.58;21.23;;;;;;;;;;5003424;28;20402;-66
2021/10/18 04:06:06;;;;;;;31.05;20.95;;;;;;;;;;5000709;28;20041;-65
2021/10/18 04:08:53;;;;;;;36.72;22.73;;;;;;;;;;4992792;28;20491;-65
2021/10/18 04:11:39;;;;;;;39.83;23.70;;;;;;;;;;4997752;28;20038;-64
2021/10/18 04:14:24;;;;;;;41.88;23.50;;;;;;;;;;4995659;28;20380;-63
2021/10/18 04:17:09;;;;;;;35.97;22.42;;;;;;;;;;4977305;28;20033;-63
2021/10/18 04:19:55;;;;;;;36.75;21.42;;;;;;;;;;4994218;28;20495;-62
2021/10/18 04:22:40;;;;;;;34.33;22.70;;;;;;;;;;4973206;28;20110;-63
2021/10/18 04:25:25;;;;;;;42.28;23.83;;;;;;;;;;4986640;28;20117;-65
2021/10/18 04:28:10;;;;;;;33.30;21.98;;;;;;;;;;4967948;28;20061;-64
2021/10/18 04:30:55;;;;;;;35.70;21.70;;;;;;;;;;4993403;28;20044;-66
2021/10/18 04:33:41;;;;;;;37.88;22.77;;;;;;;;;;5003556;28;20029;-63
2021/10/18 04:36:27;;;;;;;32.92;21.40;;;;;;;;;;4999301;28;20040;-66
2021/10/18 04:39:12;;;;;;;40.50;23.20;;;;;;;;;;5005352;28;20054;-66
2021/10/18 04:41:57;;;;;;;35.65;22.05;;;;;;;;;;5006102;28;20037;-66
2021/10/18 04:44:42;;;;;;;34.60;21.42;;;;;;;;;;4982542;28;20077;-64
2021/10/18 04:47:28;;;;;;;31.60;20.52;;;;;;;;;;4995783;28;20536;-66
2021/10/18 04:50:13;;;;;;;38.35;22.67;;;;;;;;;;4999730;28;20062;-64
2021/10/18 04:52:58;;;;;;;36.42;21.42;;;;;;;;;;4998463;28;20116;-64
2021/10/18 04:55:44;;;;;;;29.88;19.92;;;;;;;;;;4996309;28;20034;-63
2021/10/18 04:58:29;;;;;;;33.65;20.92;;;;;;;;;;4988307;28;20145;-62
2021/10/18 05:01:14;;;;;;;35.47;21.33;;;;;;;;;;4990930;28;20026;-64
2021/10/18 05:03:59;;;;;;;35.45;22.52;;;;;;;;;;4988508;28;20081;-62
2021/10/18 05:06:45;;;;;;;36.63;21.92;;;;;;;;;;4990755;28;20068;-61
2021/10/18 05:09:30;;;;;;;35.03;21.63;;;;;;;;;;5003016;28;20038;-62
2021/10/18 05:12:15;;;;;;;35.97;21.55;;;;;;;;;;4991260;28;20049;-65
2021/10/18 05:15:00;;;;;;;35.25;22.33;;;;;;;;;;4992245;28;20046;-68
2021/10/18 05:17:46;;;;;;;36.28;22.27;;;;;;;;;;4964155;28;20457;-64
2021/10/18 05:20:31;;;;;;;33.30;20.58;;;;;;;;;;5002106;28;20044;-64
2021/10/18 05:23:17;;;;;;;35.47;20.77;;;;;;;;;;5004302;28;20044;-65
2021/10/18 05:26:03;;;;;;;33.20;21.73;;;;;;;;;;4989913;28;20032;-68
2021/10/18 05:28:48;;;;;;;35.47;21.92;;;;;;;;;;4986191;28;20045;-66
2021/10/18 05:31:34;;;;;;;37.30;21.95;;;;;;;;;;4984944;28;20073;-64
2021/10/18 05:34:19;;;;;;;37.33;21.40;;;;;;;;;;4980187;28;20053;-61
2021/10/18 05:37:04;;;;;;;34.03;20.45;;;;;;;;;;4990101;28;20047;-67
2021/10/18 05:39:49;;;;;;;32.55;21.48;;;;;;;;;;5005285;28;20025;-68
2021/10/18 05:42:35;;;;;;;34.38;20.35;;;;;;;;;;4992503;28;20148;-68
2021/10/18 05:45:21;;;;;;;37.28;22.10;;;;;;;;;;5000339;28;20114;-68
2021/10/18 05:48:06;;;;;;;34.25;22.45;;;;;;;;;;5000248;28;20046;-68
2021/10/18 05:50:51;;;;;;;33.00;21.05;;;;;;;;;;4989898;28;20054;-67
2021/10/18 05:53:37;;;;;;;38.42;22.52;;;;;;;;;;4990323;28;20482;-64
2021/10/18 05:56:22;;;;;;;29.40;20.40;;;;;;;;;;4992436;28;20037;-63
2021/10/18 05:59:07;;;;;;;34.10;20.70;;;;;;;;;;4989850;28;20042;-63
2021/10/18 06:01:52;;;;;;;31.33;20.27;;;;;;;;;;4990776;28;20040;-65
2021/10/18 06:04:42;;;;;;;57.25;35.35;;;;;;;;;;4997782;28;20054;-66
2021/10/18 06:07:28;;;;;;;52.78;33.60;;;;;;;;;;5011606;28;20374;-65
2021/10/18 06:10:14;;;;;;;38.65;23.75;;;;;;;;;;4990327;28;20026;-66
2021/10/18 06:13:00;;;;;;;39.13;22.45;;;;;;;;;;4989419;28;20549;-63
2021/10/18 06:15:45;;;;;;;33.92;20.80;;;;;;;;;;5005427;28;20053;-64
2021/10/18 06:18:30;;;;;;;32.83;21.40;;;;;;;;;;5007651;28;20040;-64
2021/10/18 06:21:16;;;;;;;32.58;20.70;;;;;;;;;;5003625;28;20041;-64
2021/10/18 06:24:01;;;;;;;32.30;20.65;;;;;;;;;;4986154;28;20038;-64
2021/10/18 06:26:46;;;;;;;31.55;21.52;;;;;;;;;;4997681;28;20037;-62
2021/10/18 06:29:31;;;;;;;36.42;22.55;;;;;;;;;;4998792;28;20038;-63
2021/10/18 06:32:17;;;;;;;33.17;19.95;;;;;;;;;;4993770;28;20124;-61
2021/10/18 06:35:02;;;;;;;34.85;21.45;;;;;;;;;;5002034;28;20029;-64
2021/10/18 06:37:48;;;;;;;30.25;21.33;;;;;;;;;;4974726;28;20041;-61
2021/10/18 06:40:33;;;;;;;31.63;19.05;;;;;;;;;;4998005;28;20484;-62
2021/10/18 06:43:19;;;;;;;33.05;19.90;;;;;;;;;;4995935;28;20025;-61
2021/10/18 06:46:04;;;;;;;31.20;20.23;;;;;;;;;;4991528;28;20038;-63
2021/10/18 06:48:50;;;;;;;34.08;22.02;;;;;;;;;;5002498;28;20539;-61
2021/10/18 06:51:43;;;;;;;31.75;21.70;;;;;;;;;;4985951;28;20049;-61
2021/10/18 06:54:40;;;;;;;31.90;20.05;;;;;;;;;;4978766;28;20499;-61
2021/10/18 06:57:25;;;;;;;36.35;20.50;;;;;;;;;;4968614;28;20033;-63
2021/10/18 07:00:11;;;;;;;37.25;27.23;;;;;;;;;;4990308;28;21134;-63
2021/10/18 07:02:56;;;;;;;45.60;26.98;;;;;;;;;;4989717;28;20629;-63
2021/10/18 07:05:41;;;;;;;32.13;21.00;;;;;;;;;;4976465;28;20029;-66
2021/10/18 07:08:26;;;;;;;33.88;21.45;;;;;;;;;;5004578;28;20539;-66
2021/10/18 07:11:12;;;;;;;32.35;19.90;;;;;;;;;;4992308;28;20129;-66
2021/10/18 07:13:57;;;;;;;29.23;19.73;;;;;;;;;;4995148;28;20504;-65
2021/10/18 07:16:42;;;;;;;27.50;18.65;;;;;;;;;;5006872;28;20037;-65
2021/10/18 07:19:27;;;;;;;31.42;20.10;;;;;;;;;;5000896;28;20141;-66
2021/10/18 07:22:12;;;;;;;35.05;22.27;;;;;;;;;;5000890;28;20366;-66
2021/10/18 07:24:58;;;;;;;29.85;20.85;;;;;;;;;;4988352;28;20042;-66
2021/10/18 07:27:44;;;;;;;32.25;19.38;;;;;;;;;;4993062;28;20030;-65
2021/10/18 07:30:29;;;;;;;30.15;19.30;;;;;;;;;;4989418;28;20468;-63
2021/10/18 07:33:16;;;;;;;34.58;21.25;;;;;;;;;;4993288;28;20029;-65
2021/10/18 07:36:09;;;;;;;28.80;18.52;;;;;;;;;;4990510;28;20056;-64
2021/10/18 07:39:03;;;;;;;28.80;19.02;;;;;;;;;;4991365;28;20405;-63
2021/10/18 07:41:49;;;;;;;38.33;27.70;;;;;;;;;;4992667;28;20033;-69
2021/10/18 07:44:34;;;;;;;31.85;23.30;;;;;;;;;;4987863;28;20033;-68
2021/10/18 07:47:20;;;;;;;24.45;18.20;;;;;;;;;;4997678;28;20061;-67
2021/10/18 07:50:06;;;;;;;23.58;16.58;;;;;;;;;;5000218;28;20037;-68
2021/10/18 07:52:51;;;;;;;25.55;18.30;;;;;;;;;;4991905;28;20021;-69
2021/10/18 07:55:37;;;;;;;27.83;18.15;;;;;;;;;;4977302;28;20052;-70
2021/10/18 07:58:22;;;;;;;27.35;18.08;;;;;;;;;;4999446;28;20521;-67
2021/10/18 08:01:08;;;;;;;28.35;19.48;;;;;;;;;;4974376;28;20518;-67
2021/10/18 08:03:53;;;;;;;28.48;17.90;;;;;;;;;;4997026;28;20383;-65
2021/10/18 08:06:38;;;;;;;26.63;17.40;;;;;;;;;;4991694;28;20041;-66
2021/10/18 08:09:25;;;;;;;25.88;16.98;;;;;;;;;;5001074;28;20125;-66
2021/10/18 08:12:10;;;;;;;31.73;20.15;;;;;;;;;;5004018;28;20037;-65
2021/10/18 08:14:56;;;;;;;31.83;21.73;;;;;;;;;;4997303;28;20034;-66
2021/10/18 08:17:41;;;;;;;29.08;20.70;;;;;;;;;;4994663;28;20033;-65
2021/10/18 08:20:26;;;;;;;28.00;20.02;;;;;;;;;;5004061;28;20026;-66
2021/10/18 08:23:12;;;;;;;31.88;20.02;;;;;;;;;;5003675;28;20124;-65
2021/10/18 08:25:57;;;;;;;30.08;20.13;;;;;;;;;;4973117;28;20078;-63
2021/10/18 08:28:42;;;;;;;31.02;19.35;;;;;;;;;;5002869;28;20088;-63
2021/10/18 08:31:27;;;;;;;32.35;20.92;;;;;;;;;;4992709;28;20076;-63
2021/10/18 08:34:13;;;;;;;32.80;21.50;;;;;;;;;;4980958;28;20030;-63
2021/10/18 08:36:58;;;;;;;29.35;20.20;;;;;;;;;;4985447;28;20045;-65
2021/10/18 08:42:43;;;;;;;33.45;21.25;;;;;;;;;;5004124;28;20038;-64
2021/10/18 08:45:28;;;;;;;48.70;36.30;;;;;;;;;;4988185;28;20125;-65
2021/10/18 08:48:14;;;;;;;31.13;21.13;;;;;;;;;;4996258;28;20469;-63
2021/10/18 08:50:59;;;;;;;31.42;21.77;;;;;;;;;;4992181;28;20176;-65
2021/10/18 08:53:45;;;;;;;30.67;20.00;;;;;;;;;;4999200;28;20038;-63
2021/10/18 08:56:30;;;;;;;33.90;21.38;;;;;;;;;;5004254;28;20048;-67
2021/10/18 08:59:16;;;;;;;33.63;21.77;;;;;;;;;;5002702;28;20503;-63
2021/10/18 09:02:02;;;;;;;27.23;20.05;;;;;;;;;;4993146;28;20074;-64
2021/10/18 09:04:47;;;;;;;30.58;20.08;;;;;;;;;;5001304;28;20397;-62
2021/10/18 09:07:36;;;;;;;31.70;21.42;;;;;;;;;;4999333;28;20042;-63
2021/10/18 09:10:21;;;;;;;28.77;20.08;;;;;;;;;;4988803;28;20100;-61
2021/10/18 09:13:10;;;;;;;36.40;21.30;;;;;;;;;;5004182;28;20085;-61
2021/10/18 09:15:56;;;;;;;26.75;20.00;;;;;;;;;;5008572;28;20022;-61
2021/10/18 09:18:41;;;;;;;29.60;20.00;;;;;;;;;;4994931;28;20121;-62
2021/10/18 09:21:27;;;;;;;29.30;20.25;;;;;;;;;;4998716;28;20516;-62
2021/10/18 09:24:28;;;;;;;31.50;21.58;;;;;;;;;;4977296;28;20096;-63
2021/10/18 09:27:17;;;;;;;27.80;21.20;;;;;;;;;;4982228;28;20133;-62
2021/10/18 09:30:02;;;;;;;33.20;21.30;;;;;;;;;;4982748;28;20041;-62
2021/10/18 09:32:52;;;;;;;29.10;20.65;;;;;;;;;;4995459;28;20077;-63
2021/10/18 09:35:39;;;;;;;28.15;20.83;;;;;;;;;;4981236;28;20038;-64
2021/10/18 09:38:25;;;;;;;26.60;18.85;;;;;;;;;;5003454;28;20037;-62
2021/10/18 09:41:10;;;;;;;50.40;37.80;;;;;;;;;;5000085;28;20049;-63
2021/10/18 09:44:01;;;;;;;34.20;26.02;;;;;;;;;;5002977;28;20077;-64
2021/10/18 09:47:03;;;;;;;28.15;20.20;;;;;;;;;;4990050;28;20488;-63
2021/10/18 10:52:09;;;;;;;24.83;18.20;;;;;;;;;;5003037;28;20462;-65
2021/10/18 10:54:54;;;;;;;26.52;18.70;;;;;;;;;;5006616;28;20345;-62
2021/10/18 10:57:39;;;;;;;25.30;18.88;;;;;;;;;;4991031;28;20126;-62
2021/10/18 11:00:34;;;;;;;26.15;19.10;;;;;;;;;;5006741;28;20351;-65
2021/10/18 11:03:23;;;;;;;25.58;17.98;;;;;;;;;;4971843;28;20136;-64
2021/10/18 11:06:12;;;;;;;24.42;18.55;;;;;;;;;;4989959;28;20031;-65
2021/10/18 11:08:58;;;;;;;26.50;18.40;;;;;;;;;;5004107;28;20492;-66
2021/10/18 11:11:43;;;;;;;24.67;17.23;;;;;;;;;;4986563;28;20104;-66
2021/10/18 11:14:29;;;;;;;20.00;15.68;;;;;;;;;;4995269;28;20026;-65
2021/10/18 11:17:15;;;;;;;25.77;18.17;;;;;;;;;;5005981;28;20037;-66
2021/10/18 11:20:02;;;;;;;24.33;16.27;;;;;;;;;;4991736;28;20048;-64
2021/10/18 11:22:49;;;;;;;21.90;16.63;;;;;;;;;;4989272;28;20046;-67
2021/10/18 11:25:37;;;;;;;22.25;16.48;;;;;;;;;;4980181;28;20362;-64
2021/10/18 11:28:22;;;;;;;20.50;15.90;;;;;;;;;;4990984;28;20033;-63
2021/10/18 11:31:09;;;;;;;22.45;16.98;;;;;;;;;;4993355;28;20122;-64
2021/10/18 11:34:14;;;;;;;20.42;15.38;;;;;;;;;;4980651;28;20039;-63
2021/10/18 11:36:59;;;;;;;19.48;14.65;;;;;;;;;;4999451;28;20533;-63
2021/10/18 11:39:45;;;;;;;22.98;14.68;;;;;;;;;;4989854;28;20053;-61
2021/10/18 11:42:30;;;;;;;21.48;15.27;;;;;;;;;;4980592;28;20081;-65
2021/10/18 11:45:16;;;;;;;19.02;13.20;;;;;;;;;;4994632;28;20812;-65
2021/10/18 11:48:02;;;;;;;21.45;14.85;;;;;;;;;;5002404;28;20029;-62
2021/10/18 11:50:52;;;;;;;23.27;14.20;;;;;;;;;;4993255;28;20044;-63
2021/10/18 11:53:41;;;;;;;20.95;14.35;;;;;;;;;;4986573;28;20420;-63
2021/10/18 11:56:26;;;;;;;19.63;14.75;;;;;;;;;;5004057;28;20120;-66
2021/10/18 11:59:12;;;;;;;21.73;14.75;;;;;;;;;;4984140;28;20041;-65
2021/10/18 12:01:57;;;;;;;19.05;14.85;;;;;;;;;;4996132;28;20737;-63
2021/10/18 12:04:59;;;;;;;18.70;14.13;;;;;;;;;;4988022;28;20173;-63
2021/10/18 12:07:48;;;;;;;16.15;12.20;;;;;;;;;;5002624;28;20041;-62
2021/10/18 12:10:35;;;;;;;17.40;13.35;;;;;;;;;;4989335;28;20047;-63
2021/10/18 12:13:22;;;;;;;23.08;14.32;;;;;;;;;;4987019;28;20061;-62
2021/10/18 12:16:15;;;;;;;21.13;13.75;;;;;;;;;;5004617;28;20029;-65
2021/10/18 12:19:00;;;;;;;20.33;14.95;;;;;;;;;;4990215;28;20084;-66
2021/10/18 12:21:50;;;;;;;25.23;19.20;;;;;;;;;;4991531;28;20038;-63
2021/10/18 12:24:35;;;;;;;28.52;20.42;;;;;;;;;;4978345;28;20668;-64
2021/10/18 12:27:27;;;;;;;18.38;14.05;;;;;;;;;;4993080;28;20033;-66
2021/10/18 12:30:32;;;;;;;18.83;13.90;;;;;;;;;;4978777;28;20026;-66
2021/10/18 12:33:18;;;;;;;19.35;13.57;;;;;;;;;;5011960;28;20491;-68
2021/10/18 12:36:04;;;;;;;20.63;16.13;;;;;;;;;;4991404;28;20048;-66
2021/10/18 12:38:49;;;;;;;18.23;14.15;;;;;;;;;;4975543;28;20045;-63
2021/10/18 12:41:40;;;;;;;18.73;14.43;;;;;;;;;;5005040;28;20042;-63
2021/10/18 12:44:37;;;;;;;18.05;13.95;;;;;;;;;;4994247;28;20033;-62
2021/10/18 12:47:24;;;;;;;23.95;15.82;;;;;;;;;;4993888;28;20117;-66
2021/10/18 12:50:18;;;;;;;18.70;15.07;;;;;;;;;;5012115;28;20065;-66
2021/10/18 12:53:05;;;;;;;20.63;15.05;;;;;;;;;;4997043;28;20053;-66
2021/10/18 12:55:50;;;;;;;21.75;15.68;;;;;;;;;;4998359;28;20125;-63
2021/10/18 12:58:37;;;;;;;22.55;15.40;;;;;;;;;;4995704;28;20037;-65
2021/10/18 13:01:22;;;;;;;21.15;14.45;;;;;;;;;;4991599;28;20022;-63
2021/10/18 13:04:17;;;;;;;19.90;13.93;;;;;;;;;;4997106;28;20053;-65
2021/10/18 13:07:02;;;;;;;19.20;12.35;;;;;;;;;;4986721;28;20096;-64
2021/10/18 13:09:48;;;;;;;18.27;14.07;;;;;;;;;;4987369;28;20462;-66
2021/10/18 13:12:33;;;;;;;20.20;16.33;;;;;;;;;;5005198;28;20049;-65
2021/10/18 13:15:19;;;;;;;21.13;13.52;;;;;;;;;;4987932;28;20041;-66
2021/10/18 13:18:05;;;;;;;20.00;14.02;;;;;;;;;;4991647;28;20077;-64
2021/10/18 13:20:51;;;;;;;20.45;14.75;;;;;;;;;;4999617;28;20126;-63
2021/10/18 13:23:37;;;;;;;43.47;34.30;;;;;;;;;;5009369;28;20042;-62
2021/10/18 13:26:22;;;;;;;24.30;17.00;;;;;;;;;;4981190;28;20080;-62
2021/10/18 13:29:07;;;;;;;21.08;14.45;;;;;;;;;;5008827;28;20315;-65
2021/10/18 13:31:52;;;;;;;19.00;14.20;;;;;;;;;;4999294;28;20058;-64
2021/10/18 13:34:38;;;;;;;21.50;15.00;;;;;;;;;;4999344;28;20065;-67
2021/10/18 13:37:25;;;;;;;18.83;13.05;;;;;;;;;;5004376;28;20632;-66
2021/10/18 13:40:11;;;;;;;21.33;13.95;;;;;;;;;;5004623;28;20084;-68
2021/10/18 13:42:56;;;;;;;23.25;13.63;;;;;;;;;;4981639;28;20517;-70
2021/10/18 13:45:41;;;;;;;17.10;12.70;;;;;;;;;;4996814;28;20046;-69
2021/10/18 13:48:27;;;;;;;17.13;12.13;;;;;;;;;;4987769;28;20037;-68
2021/10/18 13:51:12;;;;;;;18.98;12.60;;;;;;;;;;5003186;28;20040;-63
2021/10/18 13:53:57;;;;;;;19.33;13.63;;;;;;;;;;5000144;28;20077;-64
2021/10/18 13:56:43;;;;;;;24.20;13.93;;;;;;;;;;5006441;28;20450;-67
2021/10/18 13:59:28;;;;;;;19.38;14.23;;;;;;;;;;5005357;28;20376;-67
2021/10/18 14:02:15;;;;;;;19.58;14.13;;;;;;;;;;4984328;28;20073;-67
2021/10/18 14:05:00;;;;;;;18.83;13.77;;;;;;;;;;4993919;28;20042;-66
2021/10/18 14:07:45;;;;;;;21.35;15.30;;;;;;;;;;4999727;28;20123;-67
2021/10/18 14:10:31;;;;;;;20.17;13.35;;;;;;;;;;4979621;28;20418;-69
2021/10/18 14:13:16;;;;;;;22.50;14.52;;;;;;;;;;4989890;28;20030;-66
2021/10/18 14:16:04;;;;;;;20.02;12.98;;;;;;;;;;4995349;28;20022;-66
2021/10/18 14:18:49;;;;;;;20.63;14.00;;;;;;;;;;4980802;28;20069;-64
2021/10/18 14:21:35;;;;;;;24.77;13.98;;;;;;;;;;5001132;28;20046;-65
2021/10/18 14:24:20;;;;;;;20.65;13.63;;;;;;;;;;4990173;28;20132;-65
2021/10/18 14:27:06;;;;;;;22.35;15.30;;;;;;;;;;4991015;28;20037;-65
2021/10/18 14:29:51;;;;;;;19.33;13.50;;;;;;;;;;5003520;28;20041;-64
2021/10/18 14:32:36;;;;;;;19.13;13.57;;;;;;;;;;4994598;28;20037;-65
2021/10/18 14:35:22;;;;;;;21.23;14.35;;;;;;;;;;4992021;28;20029;-64
2021/10/18 14:38:07;;;;;;;22.80;13.77;;;;;;;;;;4998948;28;20037;-65
2021/10/18 14:40:52;;;;;;;18.60;12.57;;;;;;;;;;4991868;28;20420;-64
2021/10/18 14:43:37;;;;;;;19.55;11.65;;;;;;;;;;5003998;28;20497;-65
2021/10/18 14:46:24;;;;;;;17.00;12.40;;;;;;;;;;4975407;28;20030;-64
2021/10/18 14:49:10;;;;;;;19.90;13.65;;;;;;;;;;4995086;28;20049;-64
2021/10/18 14:51:55;;;;;;;16.98;12.25;;;;;;;;;;4985557;28;20429;-65
2021/10/18 14:54:41;;;;;;;20.33;13.00;;;;;;;;;;4985152;28;20038;-65
2021/10/18 14:57:26;;;;;;;20.20;13.50;;;;;;;;;;5003797;28;20480;-67
2021/10/18 15:00:12;;;;;;;31.35;18.23;;;;;;;;;;4994623;28;20416;-66
2021/10/18 15:02:57;;;;;;;29.50;20.42;;;;;;;;;;4995510;28;20044;-66
2021/10/18 15:05:42;;;;;;;20.23;14.30;;;;;;;;;;4993423;28;20046;-65
2021/10/18 15:08:27;;;;;;;22.58;13.70;;;;;;;;;;4987341;28;20519;-64
2021/10/18 15:11:13;;;;;;;19.17;12.43;;;;;;;;;;5001897;28;20481;-67
2021/10/18 15:13:59;;;;;;;17.55;13.55;;;;;;;;;;4978398;28;20030;-64
2021/10/18 15:16:44;;;;;;;20.17;12.75;;;;;;;;;;4978325;28;20148;-64
2021/10/18 15:19:29;;;;;;;19.42;12.90;;;;;;;;;;4994873;28;20468;-67
2021/10/18 15:22:15;;;;;;;20.75;14.15;;;;;;;;;;4999883;28;20120;-63
2021/10/18 15:25:00;;;;;;;19.60;12.43;;;;;;;;;;5002058;28;20040;-63
2021/10/18 15:27:45;;;;;;;19.17;12.90;;;;;;;;;;4995986;28;20042;-63
2021/10/18 15:30:31;;;;;;;17.58;11.45;;;;;;;;;;4995435;28;20034;-61
2021/10/18 15:33:16;;;;;;;17.38;12.38;;;;;;;;;;5003477;28;20490;-63
2021/10/18 15:36:01;;;;;;;22.25;13.13;;;;;;;;;;4969607;28;20117;-62
2021/10/18 15:38:47;;;;;;;17.90;12.95;;;;;;;;;;4985357;28;20077;-62
2021/10/18 15:41:32;;;;;;;22.15;13.73;;;;;;;;;;4999622;28;20029;-63
2021/10/18 15:44:17;;;;;;;18.48;12.13;;;;;;;;;;5002836;28;20257;-65
2021/10/18 15:47:03;;;;;;;18.17;12.13;;;;;;;;;;4998813;28;20105;-64
2021/10/18 15:49:49;;;;;;;13.95;9.95;;;;;;;;;;4995719;28;20065;-65
2021/10/18 15:52:34;;;;;;;16.63;11.93;;;;;;;;;;5007221;28;20030;-64
2021/10/18 15:55:20;;;;;;;20.48;11.48;;;;;;;;;;4993795;28;20049;-68
2021/10/18 15:58:06;;;;;;;15.32;9.85;;;;;;;;;;4971814;28;20042;-63
2021/10/18 16:00:51;;;;;;;19.52;11.13;;;;;;;;;;4993048;28;20087;-67
2021/10/18 16:03:36;;;;;;;17.42;11.40;;;;;;;;;;4971111;28;20439;-64
2021/10/18 16:06:21;;;;;;;15.40;10.45;;;;;;;;;;4995680;28;20481;-64
2021/10/18 16:09:08;;;;;;;16.80;10.05;;;;;;;;;;4991169;28;20037;-64
2021/10/18 16:11:53;;;;;;;15.55;10.15;;;;;;;;;;4994526;28;21215;-66
2021/10/18 16:14:38;;;;;;;16.50;11.02;;;;;;;;;;4995826;28;20115;-66
2021/10/18 16:17:24;;;;;;;14.25;10.52;;;;;;;;;;4998990;28;20038;-67
2021/10/18 16:20:09;;;;;;;16.25;10.52;;;;;;;;;;5002388;28;20030;-64
2021/10/18 16:22:54;;;;;;;17.13;10.85;;;;;;;;;;4985243;28;20120;-65
2021/10/18 16:25:40;;;;;;;36.92;27.10;;;;;;;;;;4997702;28;20437;-63
2021/10/18 16:28:25;;;;;;;20.63;14.57;;;;;;;;;;4995377;28;20041;-63
2021/10/18 16:31:11;;;;;;;14.85;9.63;;;;;;;;;;5003803;28;20628;-63
2021/10/18 16:33:56;;;;;;;17.90;11.18;;;;;;;;;;5006320;28;20088;-65
2021/10/18 16:36:43;;;;;;;16.00;10.35;;;;;;;;;;4976393;28;20502;-64
2021/10/18 16:39:28;;;;;;;16.60;10.57;;;;;;;;;;4994890;28;20034;-69
2021/10/18 16:42:14;;;;;;;17.25;9.90;;;;;;;;;;4994454;28;20358;-66
2021/10/18 16:44:59;;;;;;;15.50;9.73;;;;;;;;;;4978962;28;20385;-67
2021/10/18 16:47:44;;;;;;;18.45;10.65;;;;;;;;;;4981549;28;20022;-67
2021/10/18 16:50:29;;;;;;;15.23;10.98;;;;;;;;;;4981752;28;20621;-68
2021/10/18 16:53:15;;;;;;;16.58;10.20;;;;;;;;;;4995356;28;20034;-66
2021/10/18 16:56:00;;;;;;;18.10;10.32;;;;;;;;;;4975886;28;20100;-65
2021/10/18 16:58:45;;;;;;;19.92;11.88;;;;;;;;;;4982214;28;20034;-65
2021/10/18 17:01:30;;;;;;;21.42;13.45;;;;;;;;;;4971363;28;20088;-63
2021/10/18 17:04:16;;;;;;;19.83;13.82;;;;;;;;;;4999779;28;20030;-63
2021/10/18 17:07:03;;;;;;;20.55;13.02;;;;;;;;;;4992688;28;20073;-62
2021/10/18 17:09:49;;;;;;;19.95;12.80;;;;;;;;;;4992022;28;20206;-64